createdAt,value
2022-09-13T00:02:07.879Z,6.30
2022-09-13T00:04:34.490Z,6.70
2022-09-13T00:07:00.964Z,5.55
2022-09-13T00:09:32.264Z,5.82
2022-09-13T00:12:01.060Z,6.38
2022-09-13T00:14:27.614Z,6.00
2022-09-13T00:16:54.196Z,6.30
2022-09-13T00:19:20.709Z,6.63
2022-09-13T00:21:47.249Z,6.10
2022-09-13T00:24:16.490Z,6.53
2022-09-13T00:26:43.107Z,6.00
2022-09-13T00:29:09.641Z,6.32
2022-09-13T00:31:38.710Z,6.55
2022-09-13T00:34:05.318Z,6.45
2022-09-13T00:36:31.851Z,6.63
2022-09-13T00:39:00.400Z,6.57
2022-09-13T00:41:27.055Z,6.55
2022-09-13T00:43:59.502Z,6.35
2022-09-13T00:46:44.198Z,6.38
2022-09-13T00:49:13.622Z,7.10
2022-09-13T00:51:45.990Z,6.78
2022-09-13T00:54:15.285Z,6.68
2022-09-13T00:56:48.639Z,7.05
2022-09-13T00:59:58.348Z,7.13
2022-09-13T01:02:25.103Z,6.72
2022-09-13T01:04:51.846Z,6.50
2022-09-13T01:07:19.055Z,6.75
2022-09-13T01:09:52.699Z,6.75
2022-09-13T01:12:41.634Z,7.55
2022-09-13T01:15:10.886Z,7.20
2022-09-13T01:17:39.538Z,6.97
2022-09-13T01:20:10.913Z,6.63
2022-09-13T01:22:49.464Z,7.05
2022-09-13T01:25:55.469Z,7.07
2022-09-13T01:28:40.112Z,7.05
2022-09-13T01:31:31.694Z,7.25
2022-09-13T01:34:12.764Z,7.25
2022-09-13T01:36:50.126Z,7.05
2022-09-13T01:39:42.895Z,7.43
2022-09-13T01:42:28.746Z,6.55
2022-09-13T01:45:10.982Z,7.28
2022-09-13T01:48:16.570Z,6.80
2022-09-13T01:50:48.582Z,7.20
2022-09-13T01:53:35.098Z,7.63
2022-09-13T01:56:26.106Z,7.18
2022-09-13T01:59:22.800Z,7.15
2022-09-13T02:02:14.907Z,6.60
2022-09-13T02:04:47.592Z,6.97
2022-09-13T02:07:26.593Z,6.75
2022-09-13T02:10:00.354Z,7.68
2022-09-13T02:12:31.159Z,7.50
2022-09-13T02:15:07.190Z,7.10
2022-09-13T02:17:39.208Z,6.95
2022-09-13T02:20:21.367Z,7.00
2022-09-13T02:22:57.913Z,7.13
2022-09-13T02:25:29.080Z,7.70
2022-09-13T02:28:01.771Z,7.63
2022-09-13T02:30:31.648Z,7.45
2022-09-13T02:33:08.643Z,7.10
2022-09-13T02:36:17.429Z,7.88
2022-09-13T02:38:52.633Z,7.15
2022-09-13T02:41:31.263Z,7.60
2022-09-13T02:44:08.317Z,6.88
2022-09-13T02:46:43.606Z,7.47
2022-09-13T02:49:24.692Z,7.00
2022-09-13T02:52:17.130Z,7.13
2022-09-13T02:54:57.782Z,7.45
2022-09-13T02:57:38.677Z,7.53
2022-09-13T03:00:08.667Z,7.85
2022-09-13T03:02:38.380Z,7.68
2022-09-13T03:05:05.283Z,7.60
2022-09-13T03:07:31.779Z,8.25
2022-09-13T03:10:05.592Z,7.82
2022-09-13T03:12:44.233Z,8.38
2022-09-13T03:15:29.785Z,7.32
2022-09-13T03:18:28.723Z,7.53
2022-09-13T03:21:08.256Z,7.70
2022-09-13T03:23:34.738Z,8.57
2022-09-13T03:26:04.446Z,8.23
2022-09-13T03:29:06.538Z,7.68
2022-09-13T03:31:38.403Z,8.55
2022-09-13T03:34:15.752Z,7.65
2022-09-13T03:36:44.460Z,8.35
2022-09-13T03:39:22.996Z,8.00
2022-09-13T03:41:55.913Z,7.68
2022-09-13T03:44:26.005Z,7.70
2022-09-13T03:46:57.965Z,8.05
2022-09-13T03:49:27.027Z,7.70
2022-09-13T03:51:54.901Z,7.97
2022-09-13T03:54:30.159Z,7.82
2022-09-13T03:57:10.707Z,7.93
2022-09-13T03:59:39.620Z,8.45
2022-09-13T04:02:12.051Z,9.20
2022-09-13T04:04:40.409Z,8.05
2022-09-13T04:07:07.500Z,8.38
2022-09-13T04:09:34.215Z,9.15
2022-09-13T04:12:00.937Z,8.95
2022-09-13T04:14:28.289Z,8.60
2022-09-13T04:16:56.608Z,8.48
2022-09-13T04:19:24.193Z,8.82
2022-09-13T04:21:52.433Z,8.27
2022-09-13T04:24:19.648Z,8.05
2022-09-13T04:26:54.494Z,8.27
2022-09-13T04:29:22.661Z,8.88
2022-09-13T04:31:55.942Z,8.48
2022-09-13T04:34:23.246Z,8.65
2022-09-13T04:36:52.251Z,9.00
2022-09-13T04:39:22.235Z,9.32
2022-09-13T04:41:49.722Z,8.48
2022-09-13T04:44:19.283Z,9.18
2022-09-13T04:46:51.418Z,8.63
2022-09-13T04:49:18.712Z,9.45
2022-09-13T04:51:45.245Z,9.32
2022-09-13T04:54:15.578Z,9.00
2022-09-13T04:56:49.587Z,9.38
2022-09-13T04:59:16.908Z,9.30
2022-09-13T05:01:43.615Z,8.60
2022-09-13T05:04:10.574Z,8.60
2022-09-13T05:06:37.508Z,8.05
2022-09-13T05:09:04.236Z,8.00
2022-09-13T05:11:31.560Z,8.77
2022-09-13T05:13:59.943Z,8.95
2022-09-13T05:16:29.554Z,8.32
2022-09-13T05:18:57.105Z,9.07
2022-09-13T05:21:24.226Z,9.15
2022-09-13T05:23:54.954Z,8.85
2022-09-13T05:26:24.057Z,9.10
2022-09-13T05:28:51.161Z,9.57
2022-09-13T05:31:21.767Z,8.38
2022-09-13T05:33:54.157Z,9.73
2022-09-13T05:36:20.803Z,9.20
2022-09-13T05:38:58.067Z,9.55
2022-09-13T05:41:34.033Z,9.63
2022-09-13T05:44:10.401Z,9.77
2022-09-13T05:46:39.632Z,10.05
2022-09-13T05:49:06.228Z,9.93
2022-09-13T05:51:36.450Z,10.48
2022-09-13T05:54:05.438Z,9.82
2022-09-13T05:56:34.245Z,9.57
2022-09-13T05:59:00.751Z,10.07
2022-09-13T06:01:29.350Z,9.70
2022-09-13T06:03:59.749Z,8.90
2022-09-13T06:06:29.113Z,9.85
2022-09-13T06:08:57.585Z,9.15
2022-09-13T06:11:26.265Z,9.35
2022-09-13T06:13:55.355Z,10.05
2022-09-13T06:16:22.228Z,9.50
2022-09-13T06:18:49.211Z,9.80
2022-09-13T06:21:27.025Z,9.75
2022-09-13T06:23:55.683Z,9.85
2022-09-13T06:26:25.970Z,9.80
2022-09-13T06:28:54.695Z,9.95
2022-09-13T06:31:25.742Z,10.43
2022-09-13T06:34:05.518Z,9.65
2022-09-13T06:36:32.596Z,10.23
2022-09-13T06:39:01.781Z,10.27
2022-09-13T06:41:28.692Z,9.82
2022-09-13T06:43:59.373Z,9.57
2022-09-13T06:46:32.373Z,10.10
2022-09-13T06:49:00.773Z,9.80
2022-09-13T06:51:32.681Z,11.20
2022-09-13T06:54:03.976Z,9.63
2022-09-13T06:56:32.742Z,10.68
2022-09-13T06:59:01.195Z,11.60
2022-09-13T07:01:30.812Z,11.55
2022-09-13T07:04:03.623Z,11.18
2022-09-13T07:06:32.512Z,11.90
2022-09-13T07:09:01.378Z,11.77
2022-09-13T07:11:33.042Z,13.23
2022-09-13T07:14:02.503Z,12.95
2022-09-13T07:16:31.529Z,12.73
2022-09-13T07:19:05.585Z,12.13
2022-09-13T07:21:33.980Z,13.60
2022-09-13T07:24:00.711Z,12.43
2022-09-13T07:26:29.558Z,13.43
2022-09-13T07:28:59.206Z,12.63
2022-09-13T07:31:47.182Z,13.38
2022-09-13T07:34:19.011Z,13.48
2022-09-13T07:36:48.941Z,15.98
2022-09-13T07:39:22.037Z,15.65
2022-09-13T07:41:49.339Z,17.25
2022-09-13T07:44:15.901Z,17.35
2022-09-13T07:46:44.165Z,17.13
2022-09-13T07:49:12.998Z,16.80
2022-09-13T07:51:42.057Z,17.15
2022-09-13T07:54:14.185Z,18.42
2022-09-13T07:56:41.794Z,18.85
2022-09-13T07:59:13.763Z,18.95
2022-09-13T08:01:48.792Z,18.77
2022-09-13T08:04:21.278Z,17.35
2022-09-13T08:06:48.123Z,17.40
2022-09-13T08:09:15.890Z,18.73
2022-09-13T08:11:52.730Z,17.23
2022-09-13T08:14:21.531Z,17.95
2022-09-13T08:16:48.202Z,18.42
2022-09-13T08:19:19.807Z,17.48
2022-09-13T08:21:46.862Z,19.35
2022-09-13T08:24:19.126Z,17.00
2022-09-13T08:26:48.712Z,16.45
2022-09-13T08:29:18.757Z,17.48
2022-09-13T08:31:45.393Z,16.08
2022-09-13T08:34:14.631Z,17.35
2022-09-13T08:36:41.787Z,17.08
2022-09-13T08:39:09.367Z,17.27
2022-09-13T08:41:45.355Z,16.13
2022-09-13T08:44:31.155Z,14.77
2022-09-13T08:47:06.493Z,16.60
2022-09-13T08:49:41.534Z,17.63
2022-09-13T08:52:46.283Z,15.55
2022-09-13T08:55:30.053Z,15.23
2022-09-13T08:58:14.920Z,14.30
2022-09-13T09:00:46.779Z,13.00
2022-09-13T09:03:36.118Z,13.13
2022-09-13T09:06:02.780Z,14.55
2022-09-13T09:08:33.893Z,14.40
2022-09-13T09:11:07.908Z,12.85
2022-09-13T09:13:57.274Z,10.32
2022-09-13T09:16:40.092Z,9.18
2022-09-13T09:19:34.445Z,9.05
2022-09-13T09:22:05.940Z,8.75
2022-09-13T09:24:36.451Z,8.88
2022-09-13T09:27:14.372Z,8.43
2022-09-13T09:29:44.153Z,6.78
2022-09-13T09:32:44.223Z,6.78
2022-09-13T09:35:29.314Z,7.32
2022-09-13T09:38:31.405Z,7.00
2022-09-13T09:41:05.671Z,6.63
2022-09-13T09:43:48.591Z,6.13
2022-09-13T09:46:23.330Z,7.20
2022-09-13T09:48:54.990Z,5.68
2022-09-13T09:51:27.010Z,5.88
2022-09-13T09:54:02.001Z,5.78
2022-09-13T09:56:33.109Z,6.78
2022-09-13T09:59:02.608Z,7.55
2022-09-13T10:01:32.658Z,7.22
2022-09-13T10:04:14.230Z,7.28
2022-09-13T10:06:42.261Z,6.97
2022-09-13T10:09:16.730Z,6.10
2022-09-13T10:11:57.716Z,7.40
2022-09-13T10:14:40.144Z,6.95
2022-09-13T10:17:25.801Z,6.80
2022-09-13T10:20:15.393Z,6.95
2022-09-13T10:22:43.043Z,5.88
2022-09-13T10:25:25.109Z,7.55
2022-09-13T10:27:59.291Z,7.38
2022-09-13T10:30:34.959Z,7.45
2022-09-13T10:33:03.091Z,6.28
2022-09-13T10:35:30.117Z,5.70
2022-09-13T10:37:59.033Z,6.13
2022-09-13T10:40:34.164Z,6.18
2022-09-13T10:43:07.853Z,6.90
2022-09-13T10:45:38.767Z,6.72
2022-09-13T10:48:13.126Z,8.05
2022-09-13T10:50:40.030Z,7.72
2022-09-13T10:53:38.055Z,6.80
2022-09-13T10:56:06.307Z,6.22
2022-09-13T10:58:33.064Z,5.72
2022-09-13T11:01:23.902Z,5.65
2022-09-13T11:04:50.660Z,4.95
2022-09-13T11:07:25.088Z,5.25
2022-09-13T11:10:05.729Z,4.93
2022-09-13T11:13:04.621Z,3.55
2022-09-13T11:15:34.331Z,3.13
2022-09-13T11:18:17.064Z,2.80
2022-09-13T11:21:05.471Z,3.40
2022-09-13T11:24:17.094Z,5.03
2022-09-13T11:27:05.316Z,5.35
2022-09-13T11:30:02.205Z,5.35
2022-09-13T11:32:50.406Z,5.28
2022-09-13T11:35:32.215Z,6.13
2022-09-13T11:38:17.570Z,5.65
2022-09-13T11:40:51.510Z,5.38
2022-09-13T11:43:35.673Z,5.53
2022-09-13T11:46:12.063Z,6.22
2022-09-13T11:48:47.664Z,5.65
2022-09-13T11:51:19.983Z,5.32
2022-09-13T11:54:37.950Z,6.15
2022-09-13T11:57:15.169Z,4.60
2022-09-13T11:59:50.810Z,4.35
2022-09-13T12:02:34.529Z,4.72
2022-09-13T12:05:22.048Z,4.35
2022-09-13T12:08:14.787Z,4.13
2022-09-13T12:10:52.543Z,3.78
2022-09-13T12:13:29.563Z,3.58
2022-09-13T12:16:09.918Z,3.00
2022-09-13T12:18:47.977Z,2.50
2022-09-13T12:21:23.684Z,2.97
2022-09-13T12:24:14.391Z,2.20
2022-09-13T12:26:56.239Z,2.20
2022-09-13T12:29:50.303Z,2.35
2022-09-13T12:32:18.523Z,2.10
2022-09-13T12:34:58.932Z,1.98
2022-09-13T12:37:51.651Z,1.83
2022-09-13T12:40:51.609Z,1.73
2022-09-13T12:43:24.012Z,2.03
2022-09-13T12:45:59.697Z,1.50
2022-09-13T12:48:29.280Z,1.83
2022-09-13T12:51:12.494Z,1.50
2022-09-13T12:54:02.659Z,1.40
2022-09-13T12:57:03.320Z,1.40
2022-09-13T12:59:45.160Z,1.60
2022-09-13T13:02:30.662Z,1.30
2022-09-13T13:05:06.392Z,1.70
2022-09-13T13:07:38.213Z,1.35
2022-09-13T13:10:06.696Z,1.40
2022-09-13T13:12:40.770Z,1.40
2022-09-13T13:15:27.337Z,1.10
2022-09-13T13:17:55.468Z,1.10
2022-09-13T13:20:52.307Z,1.70
2022-09-13T13:23:23.369Z,1.30
2022-09-13T13:26:02.976Z,1.27
2022-09-13T13:28:47.838Z,1.20
2022-09-13T13:31:32.494Z,1.48
2022-09-13T13:34:14.383Z,1.08
2022-09-13T13:36:43.704Z,1.10
2022-09-13T13:39:33.758Z,1.10
2022-09-13T13:42:13.209Z,1.10
2022-09-13T13:44:42.456Z,1.00
2022-09-13T13:47:08.890Z,1.02
2022-09-13T13:49:41.300Z,0.73
2022-09-13T13:52:10.785Z,0.80
2022-09-13T13:54:44.245Z,0.70
2022-09-13T13:57:55.826Z,0.70
2022-09-13T14:00:30.335Z,0.82
2022-09-13T14:02:59.239Z,0.80
2022-09-13T14:05:49.025Z,0.88
2022-09-13T14:08:34.113Z,0.73
2022-09-13T14:11:29.847Z,0.90
2022-09-13T14:14:32.786Z,0.98
2022-09-13T14:17:15.544Z,0.90
2022-09-13T14:19:50.270Z,1.10
2022-09-13T14:22:25.341Z,0.90
2022-09-13T14:24:57.174Z,0.98
2022-09-13T14:27:29.203Z,1.00
2022-09-13T14:30:01.690Z,1.30
2022-09-13T14:32:39.835Z,1.27
2022-09-13T14:35:31.117Z,1.10
2022-09-13T14:38:12.162Z,1.30
2022-09-13T14:40:39.719Z,1.30
2022-09-13T14:43:25.991Z,1.20
2022-09-13T14:45:59.991Z,1.23
2022-09-13T14:48:37.142Z,2.08
2022-09-13T14:51:12.711Z,1.83
2022-09-13T14:53:42.995Z,2.00
2022-09-13T14:56:17.682Z,1.60
2022-09-13T14:58:58.486Z,1.08
2022-09-13T15:01:43.251Z,1.60
2022-09-13T15:04:10.021Z,1.20
2022-09-13T15:06:39.873Z,1.80
2022-09-13T15:09:12.898Z,1.90
2022-09-13T15:11:55.091Z,1.55
2022-09-13T15:14:35.013Z,1.33
2022-09-13T15:17:11.125Z,1.50
2022-09-13T15:19:37.639Z,1.35
2022-09-13T15:22:19.660Z,1.40
2022-09-13T15:24:54.577Z,1.23
2022-09-13T15:27:27.134Z,1.50
2022-09-13T15:30:03.471Z,1.40
2022-09-13T15:32:32.325Z,1.40
2022-09-13T15:35:00.937Z,1.55
2022-09-13T15:37:38.416Z,1.50
2022-09-13T15:40:13.337Z,1.35
2022-09-13T15:42:42.264Z,1.27
2022-09-13T15:45:09.322Z,1.38
2022-09-13T15:47:37.344Z,1.35
2022-09-13T15:50:04.290Z,1.30
2022-09-13T15:52:31.304Z,1.10
2022-09-13T15:55:00.129Z,1.05
2022-09-13T15:57:28.739Z,1.17
2022-09-13T16:00:01.437Z,1.02
2022-09-13T16:02:35.703Z,1.13
2022-09-13T16:05:05.586Z,1.20
2022-09-13T16:07:32.338Z,0.95
2022-09-13T16:09:59.006Z,1.48
2022-09-13T16:12:27.004Z,1.52
2022-09-13T16:14:54.778Z,1.60
2022-09-13T16:17:26.745Z,1.17
2022-09-13T16:19:54.498Z,1.23
2022-09-13T16:22:21.573Z,1.88
2022-09-13T16:24:50.911Z,1.05
2022-09-13T16:27:19.358Z,1.13
2022-09-13T16:29:50.765Z,1.40
2022-09-13T16:32:17.411Z,1.30
2022-09-13T16:34:47.545Z,1.00
2022-09-13T16:37:16.340Z,0.93
2022-09-13T16:39:43.044Z,0.98
2022-09-13T16:42:10.348Z,0.90
2022-09-13T16:44:36.947Z,1.92
2022-09-13T16:47:04.273Z,1.70
2022-09-13T16:49:33.331Z,1.10
2022-09-13T16:51:59.867Z,1.52
2022-09-13T16:54:27.564Z,1.23
2022-09-13T16:56:57.481Z,1.80
2022-09-13T16:59:31.446Z,1.20
2022-09-13T17:01:58.171Z,1.50
2022-09-13T17:04:25.560Z,1.27
2022-09-13T17:06:52.147Z,1.40
2022-09-13T17:09:23.711Z,1.50
2022-09-13T17:11:50.507Z,1.52
2022-09-13T17:14:17.870Z,1.50
2022-09-13T17:16:52.125Z,1.85
2022-09-13T17:19:25.244Z,1.33
2022-09-13T17:21:53.585Z,1.40
2022-09-13T17:24:23.094Z,1.23
2022-09-13T17:26:49.732Z,1.15
2022-09-13T17:29:16.267Z,0.90
2022-09-13T17:31:43.490Z,1.20
2022-09-13T17:34:11.261Z,1.20
2022-09-13T17:36:42.053Z,0.98
2022-09-13T17:39:09.249Z,1.10
2022-09-13T17:41:36.458Z,0.90
2022-09-13T17:44:04.025Z,1.10
2022-09-13T17:46:31.024Z,1.02
2022-09-13T17:48:59.537Z,1.02
2022-09-13T17:51:30.726Z,2.45
2022-09-13T17:54:03.533Z,1.20
2022-09-13T17:56:37.272Z,0.90
2022-09-13T17:59:10.209Z,1.05
2022-09-13T18:01:41.951Z,0.93
2022-09-13T18:04:09.849Z,1.00
2022-09-13T18:06:40.778Z,0.90
2022-09-13T18:09:07.364Z,1.17
2022-09-13T18:11:34.080Z,1.10
2022-09-13T18:14:00.611Z,0.80
2022-09-13T18:16:29.399Z,1.10
2022-09-13T18:18:56.467Z,1.00
2022-09-13T18:21:27.554Z,1.13
2022-09-13T18:23:58.308Z,0.90
2022-09-13T18:26:29.835Z,1.30
2022-09-13T18:29:04.189Z,1.30
2022-09-13T18:31:32.837Z,1.40
2022-09-13T18:34:02.214Z,1.15
2022-09-13T18:36:33.390Z,1.52
2022-09-13T18:39:04.765Z,1.10
2022-09-13T18:41:37.607Z,1.42
2022-09-13T18:44:09.464Z,1.23
2022-09-13T18:46:37.460Z,0.85
2022-09-13T18:49:05.834Z,0.80
2022-09-13T18:51:35.734Z,1.10
2022-09-13T18:54:04.565Z,1.13
2022-09-13T18:56:33.165Z,0.88
2022-09-13T18:59:02.127Z,0.80
2022-09-13T19:01:32.689Z,1.30
2022-09-13T19:04:06.236Z,1.05
2022-09-13T19:06:38.918Z,1.00
2022-09-13T19:09:06.965Z,1.13
2022-09-13T19:11:52.027Z,0.90
2022-09-13T19:14:24.622Z,0.70
2022-09-13T19:16:53.974Z,0.50
2022-09-13T19:19:20.673Z,0.90
2022-09-13T19:21:48.732Z,0.60
2022-09-13T19:24:18.686Z,0.70
2022-09-13T19:26:50.816Z,0.70
2022-09-13T19:29:23.007Z,1.05
2022-09-13T19:31:52.826Z,1.27
2022-09-13T19:34:21.430Z,1.23
2022-09-13T19:36:53.735Z,1.33
2022-09-13T19:39:20.453Z,0.98
2022-09-13T19:41:47.061Z,0.90
2022-09-13T19:44:14.368Z,1.38
2022-09-13T19:46:42.385Z,1.05
2022-09-13T19:49:13.894Z,0.88
2022-09-13T19:51:41.669Z,0.80
2022-09-13T19:54:12.144Z,1.10
2022-09-13T19:56:42.724Z,0.70
2022-09-13T19:59:12.202Z,1.08
2022-09-13T20:01:41.521Z,0.80
2022-09-13T20:04:12.241Z,0.90
2022-09-13T20:06:44.184Z,0.90
2022-09-13T20:09:15.520Z,1.13
2022-09-13T20:11:46.679Z,0.95
2022-09-13T20:14:15.452Z,0.80
2022-09-13T20:16:43.145Z,1.02
2022-09-13T20:19:38.933Z,0.90
2022-09-13T20:22:01.406Z,0.93
2022-09-13T20:24:28.211Z,1.00
2022-09-13T20:26:57.284Z,1.05
2022-09-13T20:29:24.626Z,1.08
2022-09-13T20:31:51.214Z,0.80
2022-09-13T20:34:17.993Z,1.10
2022-09-13T20:36:45.497Z,1.10
2022-09-13T20:39:12.032Z,1.25
2022-09-13T20:41:38.637Z,0.98
2022-09-13T20:44:05.286Z,0.80
2022-09-13T20:46:31.979Z,1.33
2022-09-13T20:49:01.789Z,1.00
2022-09-13T20:51:32.698Z,1.42
2022-09-13T20:54:01.154Z,1.08
2022-09-13T20:56:29.153Z,1.48
2022-09-13T20:59:00.151Z,1.00
2022-09-13T21:01:29.745Z,1.08
2022-09-13T21:03:57.664Z,1.10
2022-09-13T21:06:26.549Z,1.20
2022-09-13T21:08:59.637Z,1.10
2022-09-13T21:11:33.980Z,1.23
2022-09-13T21:14:03.428Z,0.70
2022-09-13T21:16:34.966Z,1.35
2022-09-13T21:19:01.579Z,1.60
2022-09-13T21:21:33.801Z,1.30
2022-09-13T21:24:04.719Z,0.90
2022-09-13T21:26:31.952Z,0.88
2022-09-13T21:28:58.865Z,1.10
2022-09-13T21:31:28.245Z,1.20
2022-09-13T21:34:00.568Z,1.20
2022-09-13T21:36:28.752Z,0.75
2022-09-13T21:38:56.130Z,0.98
2022-09-13T21:41:24.041Z,1.25
2022-09-13T21:43:55.469Z,1.20
2022-09-13T21:46:24.951Z,1.13
2022-09-13T21:48:56.215Z,1.25
2022-09-13T21:51:25.973Z,1.10
2022-09-13T21:53:58.500Z,1.40
2022-09-13T21:56:27.933Z,1.13
2022-09-13T21:58:58.335Z,1.10
2022-09-13T22:01:30.025Z,1.42
2022-09-13T22:03:57.272Z,1.25
2022-09-13T22:06:24.394Z,1.65
2022-09-13T22:08:53.990Z,1.08
2022-09-13T22:11:26.435Z,1.00
2022-09-13T22:13:53.779Z,1.20
2022-09-13T22:16:31.443Z,1.02
2022-09-13T22:19:09.249Z,1.25
2022-09-13T22:21:40.908Z,1.00
2022-09-13T22:24:11.643Z,0.90
2022-09-13T22:26:40.867Z,1.40
2022-09-13T22:29:10.578Z,2.20
2022-09-13T22:31:39.883Z,0.90
2022-09-13T22:34:07.922Z,1.23
2022-09-13T22:36:36.799Z,1.00
2022-09-13T22:39:03.732Z,1.23
2022-09-13T22:41:33.346Z,0.82
2022-09-13T22:44:02.904Z,1.13
2022-09-13T22:46:32.918Z,1.27
2022-09-13T22:48:59.959Z,1.10
2022-09-13T22:51:27.021Z,0.88
2022-09-13T22:53:54.572Z,1.13
2022-09-13T22:56:27.958Z,1.08
2022-09-13T22:59:07.681Z,1.20
2022-09-13T23:01:35.257Z,1.33
2022-09-13T23:04:02.323Z,1.10
2022-09-13T23:06:34.181Z,0.90
2022-09-13T23:09:03.091Z,1.00
2022-09-13T23:11:32.265Z,1.10
2022-09-13T23:14:01.649Z,0.90
2022-09-13T23:16:31.311Z,1.10
2022-09-13T23:19:00.282Z,1.02
2022-09-13T23:21:31.796Z,1.08
2022-09-13T23:24:04.654Z,1.23
2022-09-13T23:26:31.485Z,1.20
2022-09-13T23:29:00.205Z,1.45
2022-09-13T23:31:32.246Z,1.20
2022-09-13T23:34:01.907Z,1.33
2022-09-13T23:36:31.132Z,1.42
2022-09-13T23:38:59.294Z,1.20
2022-09-13T23:41:26.239Z,1.40
2022-09-13T23:43:54.175Z,1.42
2022-09-13T23:46:21.037Z,1.33
2022-09-13T23:48:47.897Z,1.15
2022-09-13T23:51:19.948Z,1.50
2022-09-13T23:53:49.796Z,1.17
2022-09-13T23:56:18.989Z,1.10
2022-09-13T23:58:45.852Z,1.35
